Terminal Aerodrome Forecast
Issued by NWS Louisville, KY

Home | Current Version | Previous Version | Text Only | Print | Product List | Glossary On
Versions: 1 2 3 4 5 6 7 8 9 10 11 12 13 14 15 16 17 18 19 20
000
FTUS43 KLMK 292320
TAFBWG
TAF
KBWG 292320Z 3000/3024 VRB03KT P6SM VCSH BKN070
     FM300600 VRB03KT 6SM BR VCSH OVC015
     FM301000 24003KT 4SM BR VCSH OVC007
      TEMPO 3010/3014 2SM BR OVC004
     FM301500 23005KT P6SM VCSH OVC013=

USA.gov is the U.S. government's official web portal to all federal, state and local government web resources and services.